map of TUC home
TUC - Airport
Location
City:  Tucumán, Tucumán, Argentina
Near (Alt.):San Miguel de Tucumán
Name:Teniente General Benjamín Matienzo International Airport
ICAO:SANT
IATA:TUC

Details
Type:Airport (Aerodrome, Airfield)
Use:Public/Civil, International (customs port of entry)
Latitude:26°50'27"S (-26.840860)
Longitude:65°06'18"W (-65.104943)
Datum:WGS 1984
Elevation:1495 ft (456 m)
Variation:7.11°W (WMM2015 magnetic declination)
-0.19° annual change
Runways:1
Longest:9515 × 147 ft (2900 × 45 m), paved

Time
Time Zone:UTC-3
Local Time:

Weather
METAR:SANT 162000Z 05014KT 9999 FEW035 SCT040 33/17 Q1005
TAF:SANT 161700Z 1618/1718 09010KT 9999 SCT040 TX35/1718Z TN18/1710Z
BECMG 1700/1703 32005KT 9999 FEW025 BKN040

Related Locations
Nearby:
Farthest:JGS: 12437 mi / 20015 km
Ji'an [Jinggangshan], 36, CN

Find:

   beyond  
but within

Other Information
Maps:
NOTAMs:
Links:
Sources:

  
  • flag of Argentina
  • flag of Tucumán
  

Sectional Chart

Flight Planning
at skyvector.com

Satellite Image

Google Maps Satellite view

 

Copyright © 2004-2018 Karl L. Swartz. All rights reserved.
The Great Circle Mapper name and logo are trademarks of the Great Circle Mapper.
All other trademarks mentioned herein belong to their respective owners.
Please see credits for attibutions and further copyright information.

  Follow gcmap on Facebook Follow gcmap on Twitter Follow gcmap on Google+ GCmap on LinkedIn

hCard Microformat

Geo Microformat